Time;durP1;ratioP1;P1;durP2;ratioP2;P2;SDS_P1;SDS_P2;PMS_P1;PMS_P2;Temp;Humidity;BMP_temperature;BMP_pressure;BME280_temperature;BME280_humidity;BME280_pressure;Samples;Min_cycle;Max_cycle;Signal;HPM_P1;HPM_P2
2021/04/13 00:01:36;;;;;;;14.63;5.37;;;;;;;12.61;60.83;101437.63;143738;601;47008;-72
2021/04/13 00:04:20;;;;;;;9.07;4.75;;;;;;;12.62;59.38;101447.28;143736;568;46021;-72
2021/04/13 00:06:52;;;;;;;14.98;5.90;;;;;;;12.62;61.04;101436.75;143738;572;46016;-72
2021/04/13 00:09:32;;;;;;;9.95;5.30;;;;;;;12.64;59.91;101441.97;143737;586;47010;-73
2021/04/13 00:12:36;;;;;;;11.38;6.07;;;;;;;12.64;60.30;101434.94;143739;605;46016;-72
2021/04/13 00:15:17;;;;;;;10.77;5.95;;;;;;;12.66;59.64;101435.75;143740;579;46020;-73
2021/04/13 00:17:48;;;;;;;10.90;5.93;;;;;;;12.68;61.36;101444.50;143738;563;46016;-72
2021/04/13 00:20:50;;;;;;;11.20;5.90;;;;;;;12.71;59.80;101440.91;143739;571;46020;-72
2021/04/13 00:23:18;;;;;;;12.45;5.75;;;;;;;12.71;61.69;101438.28;143738;578;46015;-72
2021/04/13 00:26:00;;;;;;;9.43;6.10;;;;;;;12.75;59.98;101431.16;143740;597;46021;-73
2021/04/13 00:28:30;;;;;;;11.02;5.70;;;;;;;12.74;61.74;101432.06;143737;583;46010;-73
2021/04/13 00:31:01;;;;;;;12.43;5.80;;;;;;;12.74;61.26;101427.66;143735;570;46021;-73
2021/04/13 00:33:37;;;;;;;14.05;5.78;;;;;;;12.76;60.85;101431.13;143739;673;46014;-72
2021/04/13 00:36:11;;;;;;;11.10;5.85;;;;;;;12.76;61.56;101430.25;143740;589;46020;-73
2021/04/13 00:38:56;;;;;;;10.65;5.72;;;;;;;12.76;59.78;101428.47;143739;573;46011;-73
2021/04/13 00:41:28;;;;;;;10.38;5.45;;;;;;;12.75;60.73;101433.78;143739;569;47010;-74
2021/04/13 00:44:16;;;;;;;8.75;5.30;;;;;;;12.77;59.39;101421.47;143738;564;46010;-73
2021/04/13 00:46:57;;;;;;;9.18;5.47;;;;;;;12.75;61.18;101418.84;143739;640;46020;-73
2021/04/13 00:49:29;;;;;;;11.88;6.20;;;;;;;12.76;61.33;101415.31;143741;621;46010;-73
2021/04/13 00:52:13;;;;;;;12.13;6.40;;;;;;;12.77;60.06;101410.91;143738;584;46020;-72
2021/04/13 00:54:48;;;;;;;14.32;5.85;;;;;;;12.76;60.62;101411.81;143736;587;46013;-73
2021/04/13 00:57:20;;;;;;;9.15;5.18;;;;;;;12.76;60.59;101414.44;143738;592;48010;-73
2021/04/13 00:59:48;;;;;;;10.02;5.35;;;;;;;12.74;61.02;101414.50;143735;614;48018;-72
2021/04/13 01:02:21;;;;;;;12.80;5.55;;;;;;;12.75;61.15;101402.19;143737;598;46010;-73
2021/04/13 01:04:59;;;;;;;9.80;5.30;;;;;;;12.74;60.51;101405.72;143735;589;47010;-73
2021/04/13 01:07:42;;;;;;;8.80;5.15;;;;;;;12.73;59.89;101409.28;143735;631;46022;-72
2021/04/13 01:10:36;;;;;;;11.45;6.15;;;;;;;12.73;59.97;101409.28;143735;652;46010;-73
2021/04/13 01:13:17;;;;;;;11.35;6.45;;;;;;;12.73;59.75;101404.84;143734;616;49010;-73
2021/04/13 01:15:49;;;;;;;13.77;6.35;;;;;;;12.75;61.40;101407.44;143733;598;46016;-73
2021/04/13 01:18:23;;;;;;;9.68;6.20;;;;;;;12.74;61.10;101409.22;143736;575;46021;-72
2021/04/13 01:21:36;;;;;;;12.32;6.28;;;;;;;12.76;59.53;101406.53;143737;574;47018;-75
2021/04/13 01:24:10;;;;;;;11.60;5.82;;;;;;;12.73;61.67;101393.47;143736;643;46028;-72
2021/04/13 01:26:44;;;;;;;11.38;5.62;;;;;;;12.72;61.50;101391.72;143736;584;46026;-72
2021/04/13 01:29:12;;;;;;;11.23;5.53;;;;;;;12.68;62.01;101386.53;143738;607;46008;-72
2021/04/13 01:34:48;;;;;;;8.48;5.37;;;;;;;12.66;61.01;101384.84;143739;571;45042;-74
2021/04/13 01:40:21;;;;;;;11.35;5.25;;;;;;;12.63;61.63;101382.25;143738;699;46020;-73
2021/04/13 01:42:50;;;;;;;8.07;4.73;;;;;;;12.59;61.37;101386.78;143737;611;46020;-73
2021/04/13 01:45:25;;;;;;;12.40;6.62;;;;;;;12.60;61.14;101385.00;143736;651;46021;-73
2021/04/13 01:47:55;;;;;;;9.93;6.18;;;;;;;12.58;61.88;101379.75;143736;563;46014;-72
2021/04/13 01:50:42;;;;;;;10.23;5.87;;;;;;;12.60;60.36;101379.72;143736;637;48010;-72
2021/04/13 01:53:21;;;;;;;10.40;5.70;;;;;;;12.58;61.02;101371.84;143731;610;47020;-72
2021/04/13 01:55:51;;;;;;;13.00;6.37;;;;;;;12.55;61.87;101371.06;143736;584;46020;-72
2021/04/13 01:58:51;;;;;;;10.15;6.70;;;;;;;12.57;60.22;101374.53;143739;571;46014;-73
2021/04/13 02:01:42;;;;;;;14.43;6.75;;;;;;;12.55;59.97;101376.34;143737;606;46028;-73
2021/04/13 02:04:31;;;;;;;14.52;6.95;;;;;;;12.55;60.83;101385.13;143731;572;47018;-73
2021/04/13 02:07:52;;;;;;;9.00;6.18;;;;;;;12.54;60.38;101375.47;143737;665;46010;-73
2021/04/13 02:10:55;;;;;;;9.85;5.90;;;;;;;12.54;60.13;101380.75;143735;585;46032;-72
2021/04/13 02:13:28;;;;;;;10.48;5.30;;;;;;;12.52;62.32;101387.81;143741;619;46018;-72
2021/04/13 02:16:02;;;;;;;10.05;5.40;;;;;;;12.52;62.17;101385.16;143732;586;48018;-73
2021/04/13 02:18:47;;;;;;;10.02;5.32;;;;;;;12.52;62.21;101390.44;143739;594;46008;-72
2021/04/13 02:21:29;;;;;;;7.90;4.97;;;;;;;12.52;62.00;101396.59;143734;590;47010;-72
2021/04/13 02:24:24;;;;;;;8.65;5.05;;;;;;;12.54;60.60;101391.28;143738;594;49006;-72
2021/04/13 02:26:54;;;;;;;10.68;5.35;;;;;;;12.52;62.27;101391.31;143734;562;48018;-73
2021/04/13 02:29:33;;;;;;;9.68;5.30;;;;;;;12.55;62.67;101381.59;143736;579;46020;-72
2021/04/13 02:32:05;;;;;;;10.00;5.20;;;;;;;12.53;63.36;101371.09;143737;584;46012;-73
2021/04/13 02:34:45;;;;;;;12.18;5.65;;;;;;;12.52;62.00;101369.37;143738;620;48010;-72
2021/04/13 02:37:32;;;;;;;10.38;5.45;;;;;;;12.53;61.34;101371.09;143738;586;46017;-72
2021/04/13 02:40:15;;;;;;;12.05;5.20;;;;;;;12.54;62.13;101362.31;143732;568;47021;-72
2021/04/13 02:42:48;;;;;;;10.65;5.50;;;;;;;12.57;62.82;101356.09;143732;639;47010;-72
2021/04/13 02:45:39;;;;;;;11.63;5.57;;;;;;;12.58;61.41;101357.84;143737;691;47010;-72
2021/04/13 02:48:44;;;;;;;9.88;5.87;;;;;;;12.60;60.67;101367.44;143735;597;48020;-72
2021/04/13 02:51:15;;;;;;;11.30;5.57;;;;;;;12.60;62.71;101367.44;143736;594;46020;-72
2021/04/13 02:54:01;;;;;;;13.90;5.78;;;;;;;12.63;61.28;101356.81;143735;717;47010;-72
2021/04/13 02:56:35;;;;;;;11.23;5.43;;;;;;;12.64;62.42;101373.47;143737;591;46020;-72
2021/04/13 02:59:26;;;;;;;12.18;5.82;;;;;;;12.65;61.31;101370.78;143732;576;48018;-72
2021/04/13 03:02:31;;;;;;;12.68;6.62;;;;;;;12.67;61.35;101371.63;143736;580;46021;-71
2021/04/13 03:04:59;;;;;;;16.00;5.57;;;;;;;12.66;63.29;101367.25;143739;562;46010;-71
2021/04/13 03:07:29;;;;;;;10.20;5.80;;;;;;;12.66;63.09;101358.50;143741;602;46008;-71
2021/04/13 03:10:07;;;;;;;11.60;6.12;;;;;;;12.67;61.76;101358.47;143733;599;48019;-72
2021/04/13 03:12:41;;;;;;;14.27;6.37;;;;;;;12.68;63.22;101375.13;143741;598;46020;-72
2021/04/13 03:15:14;;;;;;;10.52;6.82;;;;;;;12.67;62.49;101390.06;143737;572;46024;-71
2021/04/13 03:17:49;;;;;;;19.52;8.02;;;;;;;12.68;62.13;101402.34;143738;589;47010;-73
2021/04/13 03:20:24;;;;;;;16.30;7.62;;;;;;;12.68;61.88;101397.09;143733;581;48018;-71
2021/04/13 03:22:55;;;;;;;16.12;7.82;;;;;;;12.68;62.52;101367.22;143734;628;47010;-72
2021/04/13 03:25:31;;;;;;;20.90;8.23;;;;;;;12.74;63.03;101379.34;143737;611;46010;-72
2021/04/13 03:28:00;;;;;;;16.17;7.85;;;;;;;12.76;63.55;101369.66;143735;563;46022;-72
2021/04/13 03:30:31;;;;;;;14.45;7.93;;;;;;;12.77;63.81;101364.34;143735;590;46020;-73
2021/04/13 03:33:12;;;;;;;14.87;7.32;;;;;;;12.78;63.67;101357.28;143737;575;47010;-71
2021/04/13 03:35:39;;;;;;;17.87;6.65;;;;;;;12.76;63.70;101348.56;143738;608;46010;-72
2021/04/13 03:38:10;;;;;;;12.63;6.57;;;;;;;12.76;64.19;101357.34;143739;594;46020;-72
2021/04/13 03:40:43;;;;;;;12.18;6.07;;;;;;;12.77;64.01;101358.22;143734;609;48018;-71
2021/04/13 03:43:13;;;;;;;15.48;6.53;;;;;;;12.75;64.29;101363.50;143737;610;47010;-71
2021/04/13 03:45:44;;;;;;;18.62;7.68;;;;;;;12.75;63.24;101355.59;143733;665;46017;-72
2021/04/13 03:48:28;;;;;;;19.83;7.25;;;;;;;12.76;63.25;101345.94;143735;562;46026;-71
2021/04/13 03:51:06;;;;;;;16.45;7.55;;;;;;;12.76;63.63;101351.22;143736;696;46010;-72
2021/04/13 03:53:37;;;;;;;15.73;7.80;;;;;;;12.79;64.47;101364.28;143739;598;47011;-71
2021/04/13 03:56:12;;;;;;;16.20;6.90;;;;;;;12.79;64.11;101357.25;143737;574;47008;-71
2021/04/13 03:58:47;;;;;;;16.02;7.05;;;;;;;12.81;63.87;101370.41;143734;571;47020;-71
2021/04/13 04:01:20;;;;;;;13.77;7.40;;;;;;;12.80;64.19;101364.25;143736;572;47021;-72
2021/04/13 04:04:22;;;;;;;13.65;7.12;;;;;;;12.84;62.37;101386.13;143728;564;48010;-71
2021/04/13 04:07:03;;;;;;;18.02;7.00;;;;;;;12.83;63.56;101389.66;143738;589;46015;-71
2021/04/13 04:09:36;;;;;;;16.58;7.57;;;;;;;12.85;63.45;101386.09;143738;578;47010;-71
2021/04/13 04:12:33;;;;;;;18.83;7.28;;;;;;;12.88;61.95;101377.22;143738;592;46010;-71
2021/04/13 04:15:11;;;;;;;14.15;6.90;;;;;;;12.90;63.03;101393.84;143736;568;46020;-72
2021/04/13 04:17:47;;;;;;;17.92;7.65;;;;;;;12.88;65.04;101400.94;143732;640;47012;-71
2021/04/13 04:20:15;;;;;;;19.77;8.23;;;;;;;12.89;65.06;101407.97;143737;569;46022;-71
2021/04/13 04:22:54;;;;;;;20.17;8.50;;;;;;;12.91;63.55;101413.19;143735;565;46010;-73
2021/04/13 04:25:48;;;;;;;17.48;8.43;;;;;;;12.91;63.48;101424.59;143735;568;46010;-71
2021/04/13 04:28:21;;;;;;;18.33;9.05;;;;;;;12.93;64.56;101424.53;143736;682;46010;-71
2021/04/13 04:30:48;;;;;;;18.42;9.63;;;;;;;12.93;64.90;101428.06;143739;648;48010;-71
2021/04/13 04:33:37;;;;;;;20.67;9.63;;;;;;;12.95;63.29;101435.91;143734;635;48020;-72
2021/04/13 04:36:32;;;;;;;24.40;11.85;;;;;;;12.95;63.35;101436.78;143737;587;46020;-71
2021/04/13 04:39:27;;;;;;;17.45;11.38;;;;;;;12.97;62.85;101447.28;143737;615;46016;-72
2021/04/13 04:41:59;;;;;;;30.10;18.35;;;;;;;12.96;64.93;101451.69;143736;605;47008;-72
2021/04/13 04:44:33;;;;;;;49.67;33.30;;;;;;;12.96;65.44;101445.56;143734;593;46017;-71
2021/04/13 04:47:00;;;;;;;45.78;30.17;;;;;;;12.97;65.34;101440.25;143736;652;48010;-71
2021/04/13 04:49:40;;;;;;;26.85;17.98;;;;;;;12.99;64.40;101437.56;143736;586;47010;-72
2021/04/13 04:52:08;;;;;;;22.62;12.00;;;;;;;12.99;65.53;101442.84;143737;628;46025;-71
2021/04/13 04:54:35;;;;;;;18.05;9.70;;;;;;;12.99;65.36;101437.56;143738;622;46010;-71
2021/04/13 04:57:04;;;;;;;21.08;9.93;;;;;;;13.00;66.00;101439.31;143734;662;46020;-71
2021/04/13 04:59:31;;;;;;;15.57;8.55;;;;;;;13.01;65.96;101441.00;143734;568;46016;-71
2021/04/13 05:01:58;;;;;;;19.10;9.25;;;;;;;13.02;65.87;101437.47;143738;631;47010;-71
2021/04/13 05:04:25;;;;;;;18.48;8.52;;;;;;;13.02;65.77;101433.06;143735;577;46029;-72
2021/04/13 05:06:52;;;;;;;19.50;9.13;;;;;;;13.04;66.32;101430.41;143735;625;47008;-71
2021/04/13 05:09:19;;;;;;;19.45;8.68;;;;;;;13.06;65.67;101436.50;143729;564;47010;-71
2021/04/13 05:11:47;;;;;;;16.62;9.18;;;;;;;13.08;65.62;101434.69;143740;605;46018;-72
2021/04/13 05:14:14;;;;;;;20.88;8.68;;;;;;;13.09;65.49;101433.75;143731;564;49018;-71
2021/04/13 05:16:41;;;;;;;24.12;9.48;;;;;;;13.11;65.71;101426.69;143736;604;47010;-71
2021/04/13 05:19:08;;;;;;;23.08;10.90;;;;;;;13.14;65.73;101433.66;143733;567;47010;-71
2021/04/13 05:21:35;;;;;;;26.50;10.35;;;;;;;13.15;65.63;101433.63;143737;564;49010;-72
2021/04/13 05:24:02;;;;;;;19.12;9.43;;;;;;;13.18;66.02;101427.41;143732;585;47019;-71
2021/04/13 05:26:30;;;;;;;27.92;10.13;;;;;;;13.19;66.22;101427.34;143734;563;46020;-71
2021/04/13 05:28:57;;;;;;;26.37;9.93;;;;;;;13.22;66.04;101426.41;143733;603;46012;-71
2021/04/13 05:31:24;;;;;;;24.73;10.43;;;;;;;13.24;66.39;101431.62;143736;636;46021;-74
2021/04/13 05:33:51;;;;;;;25.95;10.95;;;;;;;13.26;65.97;101424.53;143732;608;48018;-72
2021/04/13 05:36:18;;;;;;;22.25;10.13;;;;;;;13.27;66.20;101421.88;143737;564;47010;-72
2021/04/13 05:38:46;;;;;;;23.27;10.18;;;;;;;13.31;66.26;101428.78;143738;589;46010;-72
2021/04/13 05:41:14;;;;;;;20.37;10.15;;;;;;;13.32;66.19;101430.50;143738;581;48010;-72
2021/04/13 05:43:43;;;;;;;19.27;10.05;;;;;;;13.35;66.52;101424.28;143737;635;47010;-71
2021/04/13 05:46:24;;;;;;;21.37;10.27;;;;;;;13.37;65.72;101431.28;143736;576;49010;-71
2021/04/13 05:48:52;;;;;;;29.85;10.65;;;;;;;13.42;65.14;101430.28;143739;590;47012;-70
2021/04/13 05:51:20;;;;;;;23.90;10.23;;;;;;;13.45;65.17;101427.53;143736;615;48010;-71
2021/04/13 05:53:47;;;;;;;22.73;11.05;;;;;;;13.49;65.63;101429.19;143733;581;48019;-70
2021/04/13 05:56:17;;;;;;;20.15;11.35;;;;;;;13.52;65.87;101429.97;143737;573;46020;-70
2021/04/13 05:58:49;;;;;;;26.65;11.60;;;;;;;13.56;65.20;101427.25;143731;596;46028;-70
2021/04/13 06:01:19;;;;;;;29.67;12.57;;;;;;;13.59;64.72;101428.03;143737;585;46021;-70
2021/04/13 06:03:47;;;;;;;27.37;12.30;;;;;;;13.64;64.40;101412.03;143732;565;48018;-70
2021/04/13 06:06:17;;;;;;;30.40;13.85;;;;;;;13.69;64.97;101404.88;143738;604;47010;-70
2021/04/13 06:08:46;;;;;;;25.40;13.75;;;;;;;13.74;66.08;101402.06;143736;599;47012;-70
2021/04/13 06:11:18;;;;;;;30.90;14.90;;;;;;;13.79;67.59;101393.13;143739;601;46020;-70
2021/04/13 06:13:45;;;;;;;30.73;14.77;;;;;;;13.85;67.74;101392.06;143731;579;47010;-70
2021/04/13 06:16:13;;;;;;;32.80;16.62;;;;;;;13.90;68.10;101392.81;143733;591;49010;-70
2021/04/13 06:18:40;;;;;;;27.33;13.20;;;;;;;13.94;66.61;101386.50;143739;606;46010;-70
2021/04/13 06:21:08;;;;;;;22.05;10.80;;;;;;;13.95;65.06;101388.22;143738;562;46019;-70
2021/04/13 06:23:35;;;;;;;20.65;9.80;;;;;;;13.96;64.34;101384.66;143727;568;50018;-70
2021/04/13 06:26:02;;;;;;;19.60;10.20;;;;;;;13.94;64.50;101383.88;143738;561;47010;-70
2021/04/13 06:28:29;;;;;;;19.58;10.60;;;;;;;13.94;64.91;101385.63;143727;564;47016;-70
2021/04/13 06:30:56;;;;;;;23.87;10.55;;;;;;;13.96;65.12;101389.09;143735;592;49010;-70
2021/04/13 06:33:24;;;;;;;18.75;11.30;;;;;;;13.97;65.07;101406.66;143740;611;46010;-71
2021/04/13 06:35:51;;;;;;;22.95;11.77;;;;;;;13.99;65.86;101412.75;143735;602;47010;-71
2021/04/13 06:38:23;;;;;;;29.17;13.40;;;;;;;14.00;65.63;101433.81;143733;571;47010;-72
2021/04/13 06:41:38;;;;;;;21.10;11.38;;;;;;;14.00;63.98;101444.38;143737;572;47010;-72
2021/04/13 06:45:00;;;;;;;27.60;12.50;;;;;;;14.02;64.34;101442.59;143737;574;46017;-71
2021/04/13 06:47:53;;;;;;;23.30;12.18;;;;;;;14.02;66.13;101447.88;143737;604;46020;-72
2021/04/13 06:50:50;;;;;;;26.02;11.93;;;;;;;14.04;65.91;101456.59;143736;658;46016;-73
2021/04/13 06:54:09;;;;;;;27.45;13.20;;;;;;;14.07;64.85;101446.84;143738;600;46021;-72
2021/04/13 06:56:56;;;;;;;25.17;14.68;;;;;;;14.07;65.92;101437.16;143737;567;46018;-71
2021/04/13 07:00:02;;;;;;;22.97;14.17;;;;;;;14.04;64.94;101427.53;143738;562;47008;-72
2021/04/13 07:03:03;;;;;;;36.42;20.73;;;;;;;14.10;66.79;101428.28;143738;590;46014;-72
2021/04/13 07:05:50;;;;;;;37.55;25.55;;;;;;;14.13;68.25;101409.69;143737;569;48008;-73
2021/04/13 07:08:39;;;;;;;45.25;26.05;;;;;;;14.18;66.54;101384.00;143735;600;48019;-72
2021/04/13 07:11:38;;;;;;;36.58;23.45;;;;;;;14.23;65.77;101363.59;143738;600;46020;-72
2021/04/13 07:14:29;;;;;;;38.63;21.77;;;;;;;14.31;65.51;101364.19;143737;637;47010;-73
2021/04/13 07:17:23;;;;;;;36.05;15.48;;;;;;;14.38;66.67;101372.78;143739;567;47008;-73
2021/04/13 07:19:59;;;;;;;22.50;13.57;;;;;;;14.39;66.19;101372.72;143733;614;46011;-73
2021/04/13 07:22:32;;;;;;;20.80;12.85;;;;;;;14.39;67.74;101364.81;143738;597;46021;-73
2021/04/13 07:25:12;;;;;;;25.35;12.63;;;;;;;14.42;68.64;101353.28;143740;608;46016;-73
2021/04/13 07:27:57;;;;;;;23.70;12.25;;;;;;;14.44;66.63;101356.72;143736;640;47009;-72
2021/04/13 07:30:47;;;;;;;22.67;12.35;;;;;;;14.45;67.85;101355.81;143732;610;48019;-72
2021/04/13 07:33:20;;;;;;;20.27;12.20;;;;;;;14.42;68.49;101355.03;143736;601;46022;-72
2021/04/13 07:35:48;;;;;;;23.75;13.82;;;;;;;14.43;68.07;101356.75;143733;641;46011;-72
2021/04/13 07:38:26;;;;;;;23.95;13.93;;;;;;;14.48;66.84;101370.69;143740;572;46008;-72
2021/04/13 07:41:03;;;;;;;24.30;13.40;;;;;;;14.51;67.68;101381.16;143734;604;48018;-71
2021/04/13 07:43:33;;;;;;;;;;;;;;;14.52;66.55;101367.88;143743;981;46008;-71
2021/04/13 07:46:32;;;;;;;16.85;10.43;;;;;;;14.51;68.14;101367.94;143741;595;47010;-73
2021/04/13 07:49:20;;;;;;;19.48;10.75;;;;;;;14.55;67.29;101366.91;143739;593;46018;-73
2021/04/13 07:52:25;;;;;;;17.27;10.02;;;;;;;14.47;64.68;101364.53;143734;574;47012;-74
2021/04/13 07:55:08;;;;;;;15.07;10.45;;;;;;;14.60;66.07;101385.25;143734;563;46020;-72
2021/04/13 07:58:07;;;;;;;19.00;9.88;;;;;;;14.63;65.11;101395.78;143736;604;47029;-73
2021/04/13 08:00:40;;;;;;;15.32;9.77;;;;;;;14.64;67.24;101395.72;143740;577;46020;-73
2021/04/13 08:03:32;;;;;;;17.45;9.88;;;;;;;14.61;66.98;101389.63;143740;564;46012;-72
2021/04/13 08:06:02;;;;;;;15.55;9.50;;;;;;;14.65;67.74;101397.44;143739;606;46012;-73
2021/04/13 08:08:37;;;;;;;15.85;9.00;;;;;;;14.65;67.50;101392.16;143733;584;47014;-73
2021/04/13 08:11:22;;;;;;;14.68;9.13;;;;;;;14.58;66.64;101380.00;143738;579;46022;-72
2021/04/13 08:13:53;;;;;;;15.52;9.30;;;;;;;14.66;67.41;101399.16;143735;623;47012;-73
2021/04/13 08:16:33;;;;;;;16.87;9.20;;;;;;;14.71;65.92;101402.50;143734;590;46020;-72
2021/04/13 08:19:23;;;;;;;16.83;8.90;;;;;;;14.75;65.95;101412.97;143733;631;47012;-73
2021/04/13 08:22:15;;;;;;;19.10;9.95;;;;;;;14.78;66.10;101424.31;143739;563;46021;-73
2021/04/13 08:24:57;;;;;;;13.82;9.52;;;;;;;14.79;67.45;101426.03;143739;631;47012;-73
2021/04/13 08:27:51;;;;;;;15.73;9.90;;;;;;;14.82;68.55;101420.63;143737;640;46021;-73
2021/04/13 08:34:44;;;;;;;18.33;8.83;;;;;;;14.91;65.19;101443.25;143741;592;46010;-74
2021/04/13 08:37:49;;;;;;;16.33;9.75;;;;;;;14.92;66.21;101444.13;143738;580;46012;-72
2021/04/13 08:40:34;;;;;;;18.37;9.10;;;;;;;14.94;65.12;101437.00;143738;603;46012;-73
2021/04/13 08:43:30;;;;;;;16.23;9.85;;;;;;;14.99;64.46;101435.06;143733;582;46014;-73
2021/04/13 08:46:30;;;;;;;20.45;9.52;;;;;;;15.10;65.32;101429.38;143740;567;46018;-73
2021/04/13 08:49:33;;;;;;;14.25;8.95;;;;;;;15.23;65.54;101433.31;143735;645;49018;-71
2021/04/13 08:52:44;;;;;;;19.23;9.30;;;;;;;15.37;65.29;101425.72;143737;623;46021;-75
2021/04/13 08:55:22;;;;;;;17.40;8.70;;;;;;;15.52;64.95;101412.87;143738;563;47012;-74
2021/04/13 08:58:23;;;;;;;14.52;7.68;;;;;;;15.66;63.82;101413.19;143738;578;47012;-72
2021/04/13 09:00:57;;;;;;;21.08;7.90;;;;;;;15.81;63.71;101417.06;143740;641;46012;-73
2021/04/13 09:03:40;;;;;;;12.65;7.80;;;;;;;15.92;63.55;101411.34;143739;596;46020;-74
2021/04/13 09:06:45;;;;;;;16.23;7.62;;;;;;;16.02;61.98;101410.09;143737;590;46033;-73
2021/04/13 09:09:55;;;;;;;16.90;7.93;;;;;;;16.13;61.73;101416.72;143741;574;46022;-73
2021/04/13 09:12:32;;;;;;;12.07;7.90;;;;;;;16.20;61.80;101407.63;143735;577;48018;-73
2021/04/13 09:15:25;;;;;;;18.25;8.90;;;;;;;16.28;61.68;101408.19;143742;659;46010;-74
2021/04/13 09:18:07;;;;;;;16.35;8.60;;;;;;;16.35;61.55;101403.50;143738;614;47012;-73
2021/04/13 09:20:55;;;;;;;15.00;8.27;;;;;;;16.41;61.39;101396.13;143738;628;47013;-73
2021/04/13 09:23:47;;;;;;;13.90;8.95;;;;;;;16.48;60.69;101398.53;143740;555;46012;-74
2021/04/13 09:26:38;;;;;;;13.30;7.95;;;;;;;16.57;60.44;101411.41;143738;564;46020;-74
2021/04/13 09:29:08;;;;;;;14.15;8.40;;;;;;;16.66;59.78;101411.03;143738;565;46036;-74
2021/04/13 09:31:46;;;;;;;14.40;8.43;;;;;;;16.80;60.31;101401.59;143739;568;46020;-73
2021/04/13 09:34:34;;;;;;;14.98;9.27;;;;;;;16.89;59.45;101402.09;143739;578;46020;-74
2021/04/13 09:37:58;;;;;;;11.93;7.55;;;;;;;16.99;58.86;101391.06;143739;637;46020;-74
2021/04/13 09:41:10;;;;;;;29.42;15.10;;;;;;;17.06;58.56;101395.19;143733;563;47028;-73
2021/04/13 09:44:34;;;;;;;21.15;13.40;;;;;;;17.15;58.41;101392.09;143739;634;47010;-74
2021/04/13 09:47:28;;;;;;;12.37;7.18;;;;;;;17.24;58.32;101393.50;143741;637;46012;-74
2021/04/13 09:50:17;;;;;;;14.05;6.45;;;;;;;17.38;57.98;101390.22;143741;799;46011;-73
2021/04/13 09:53:26;;;;;;;11.23;5.87;;;;;;;17.55;57.59;101379.69;143734;592;47012;-74
2021/04/13 09:56:48;;;;;;;16.42;5.87;;;;;;;17.75;56.89;101375.22;143739;601;46020;-74
2021/04/13 10:00:01;;;;;;;10.35;4.62;;;;;;;17.98;55.70;101368.84;143735;982;48019;-74
2021/04/13 10:03:14;;;;;;;11.95;4.50;;;;;;;18.29;53.71;101358.47;143739;821;47010;-74
2021/04/13 10:05:48;;;;;;;9.32;4.57;;;;;;;18.58;53.07;101354.34;143739;955;46014;-77
2021/04/13 10:08:36;;;;;;;9.13;3.87;;;;;;;18.82;51.82;101360.22;143740;573;47012;-74
2021/04/13 10:11:38;;;;;;;6.82;3.58;;;;;;;18.94;50.49;101366.69;143737;889;46018;-74
2021/04/13 10:14:57;;;;;;;9.57;4.10;;;;;;;18.95;50.52;101376.41;143738;562;46021;-72
2021/04/13 10:17:50;;;;;;;11.02;4.78;;;;;;;18.83;49.56;101371.69;143740;670;46010;-73
2021/04/13 10:20:47;;;;;;;10.07;4.62;;;;;;;18.69;48.75;101369.75;143740;921;46021;-71
2021/04/13 10:23:48;;;;;;;11.07;4.75;;;;;;;18.48;50.47;101358.41;143738;971;46012;-71
2021/04/13 10:27:02;;;;;;;9.52;5.40;;;;;;;18.29;49.74;101358.47;143740;589;46013;-72
2021/04/13 10:30:20;;;;;;;8.77;4.53;;;;;;;18.09;50.67;101371.81;143739;591;46014;-72
2021/04/13 10:33:31;;;;;;;7.78;4.87;;;;;;;17.97;50.47;101383.03;143739;589;47008;-71
2021/04/13 10:36:41;;;;;;;12.73;4.45;;;;;;;17.84;51.65;101384.56;143737;763;48019;-70
2021/04/13 10:39:39;;;;;;;10.65;5.12;;;;;;;17.69;53.36;101384.34;143738;966;46036;-71
2021/04/13 10:42:42;;;;;;;11.88;5.20;;;;;;;17.57;51.96;101384.91;143739;862;46013;-71
2021/04/13 10:45:39;;;;;;;12.90;5.93;;;;;;;17.53;53.64;101386.84;143739;572;47008;-74
2021/04/13 10:48:53;;;;;;;10.45;5.37;;;;;;;17.54;53.75;101393.88;143736;568;47018;-71
2021/04/13 10:51:57;;;;;;;10.23;5.07;;;;;;;17.53;52.32;101386.00;143738;763;47012;-71
2021/04/13 10:55:23;;;;;;;14.25;4.93;;;;;;;17.52;51.01;101378.97;143737;981;47012;-73
2021/04/13 10:58:35;;;;;;;11.35;4.62;;;;;;;17.50;52.58;101378.19;143741;942;46021;-71
2021/04/13 11:01:38;;;;;;;11.02;5.22;;;;;;;17.41;52.00;101366.19;143740;968;46012;-71
2021/04/13 11:04:37;;;;;;;12.23;5.80;;;;;;;17.33;53.63;101377.16;143739;578;47012;-71
2021/04/13 11:07:49;;;;;;;9.70;5.15;;;;;;;17.23;53.79;101359.94;143740;577;46016;-70
2021/04/13 11:11:00;;;;;;;9.93;5.37;;;;;;;17.08;53.21;101345.56;143741;620;46010;-71
2021/04/13 11:14:02;;;;;;;11.38;5.80;;;;;;;16.99;54.00;101333.59;143741;799;46012;-71
2021/04/13 11:17:05;;;;;;;10.52;5.12;;;;;;;16.94;54.32;101324.97;143739;625;46020;-71
2021/04/13 11:20:22;;;;;;;9.05;5.00;;;;;;;16.90;54.54;101326.88;143741;978;46014;-71
2021/04/13 11:23:41;;;;;;;9.75;4.95;;;;;;;16.87;54.74;101324.34;143740;575;47012;-71
2021/04/13 11:26:45;;;;;;;7.20;5.22;;;;;;;16.84;54.83;101321.84;143737;687;48018;-72
2021/04/13 11:30:02;;;;;;;9.85;5.20;;;;;;;16.80;54.06;101307.00;143742;823;46020;-70
2021/04/13 11:33:07;;;;;;;9.15;5.00;;;;;;;16.76;53.68;101292.16;143740;585;46012;-71
2021/04/13 11:36:13;;;;;;;8.05;4.82;;;;;;;16.74;54.16;101284.28;143739;887;46021;-71
2021/04/13 11:38:57;;;;;;;14.95;5.07;;;;;;;16.75;54.70;101285.13;143741;638;46012;-71
2021/04/13 11:42:15;;;;;;;10.02;5.62;;;;;;;16.79;54.93;101296.47;143738;562;46021;-71
2021/04/13 11:45:13;;;;;;;10.95;6.07;;;;;;;16.79;54.85;101318.53;143732;567;48028;-71
2021/04/13 11:47:50;;;;;;;10.23;6.03;;;;;;;16.82;54.83;101333.44;143735;570;46022;-70
2021/04/13 11:50:39;;;;;;;10.50;6.65;;;;;;;16.85;55.25;101346.56;143734;573;46016;-70
2021/04/13 11:53:10;;;;;;;13.15;6.62;;;;;;;16.84;57.39;101344.84;143732;583;47010;-72
2021/04/13 11:55:56;;;;;;;10.75;6.55;;;;;;;16.87;57.46;101337.63;143735;610;46016;-72
2021/04/13 11:58:33;;;;;;;8.80;6.37;;;;;;;16.87;58.37;101334.13;143735;641;48010;-69
2021/04/13 12:01:36;;;;;;;11.68;6.72;;;;;;;16.93;56.81;101323.25;143732;574;48018;-72
2021/04/13 12:04:10;;;;;;;10.18;6.40;;;;;;;16.94;56.70;101317.00;143729;689;48010;-71
2021/04/13 12:06:56;;;;;;;10.07;6.22;;;;;;;17.01;55.65;101314.94;143734;865;46020;-71
2021/04/13 12:10:12;;;;;;;9.85;6.55;;;;;;;17.03;55.38;101306.00;143740;628;46020;-70
2021/04/13 12:12:48;;;;;;;13.65;6.50;;;;;;;17.05;54.93;101301.47;143738;645;46012;-70
2021/04/13 12:15:38;;;;;;;13.73;7.50;;;;;;;17.07;55.40;101304.03;143737;576;47010;-70
2021/04/13 12:18:57;;;;;;;23.48;8.20;;;;;;;17.07;56.18;101298.75;143739;859;47012;-73
2021/04/13 12:21:48;;;;;;;20.12;9.07;;;;;;;17.07;57.06;101280.16;143740;864;46023;-70
2021/04/13 12:24:59;;;;;;;25.02;8.00;;;;;;;17.09;56.89;101273.00;143735;872;47012;-70
2021/04/13 12:27:45;;;;;;;13.70;7.30;;;;;;;17.04;55.43;101249.31;143739;562;48010;-71
2021/04/13 12:30:53;;;;;;;13.40;7.05;;;;;;;17.14;54.89;101249.78;143741;574;46014;-70
2021/04/13 12:33:52;;;;;;;18.27;7.28;;;;;;;17.07;55.23;101221.81;143739;562;49012;-70
2021/04/13 12:36:45;;;;;;;18.02;7.30;;;;;;;17.25;56.04;101238.66;143740;916;46012;-80
2021/04/13 12:39:42;;;;;;;19.90;8.13;;;;;;;17.42;55.95;101228.06;143740;624;46020;-71
2021/04/13 12:42:29;;;;;;;24.35;8.32;;;;;;;17.76;55.79;101226.41;143733;568;47013;-71
2021/04/13 12:45:24;;;;;;;17.45;7.30;;;;;;;18.19;53.37;101227.84;143741;673;46018;-71
2021/04/13 12:48:01;;;;;;;12.63;6.75;;;;;;;18.49;50.81;101217.41;143739;562;46013;-71